Roby, Illinois
Current Conditions -  °F | °C
As of 12:52 PM on Saturday 25 Oct 2014 (Local Time) from KSPI Reporting Station
Clear Clear  
Wind Chill: 78°   Ceiling: Unl
Heat Index: 79°   Visibility: 10mi
Dew Point: 54°   Wind: 7mph
Humidity: 43%   Direction: 300°WNW
Pressure: 30.01"   Gusts: NA
Location:  39.766°N, 89.4108°W
Report Text: KSPI 251752Z 30006KT 10SM CLR 26/12 A3001 RMK AO2 SLP160 T02560122 10256 20144 58006
Loading
Personal Weather Stations






























Interactive Weather Map New forecast layout! Learn more

10-Day Weather Forecast

Advertisements
Track Severe Weather on mobile